Time;durP1;ratioP1;P1;durP2;ratioP2;P2;SDS_P1;SDS_P2;PMS_P1;PMS_P2;Temp;Humidity;BMP_temperature;BMP_pressure;BME280_temperature;BME280_humidity;BME280_pressure;Samples;Min_cycle;Max_cycle;Signal;HPM_P1;HPM_P2
2023/12/20 00:00:01;;;;;;;6.50;2.70;;;;;;;6.30;56.79;98297.59;108665;1264;72671;-26
2023/12/20 00:02:30;;;;;;;4.50;2.50;;;;;;;6.33;56.79;98303.57;108691;1266;59258;-26
2023/12/20 00:04:58;;;;;;;9.30;2.80;;;;;;;6.29;56.88;98299.07;108737;1264;58809;-25
2023/12/20 00:07:26;;;;;;;6.70;2.80;;;;;;;6.30;56.99;98300.74;108767;1264;73486;-25
2023/12/20 00:09:53;;;;;;;7.30;2.90;;;;;;;6.27;57.11;98305.63;108776;1264;73705;-25
2023/12/20 00:12:21;;;;;;;6.50;2.80;;;;;;;6.25;57.01;98304.57;108716;1266;72658;-25
2023/12/20 00:14:48;;;;;;;6.60;3.30;;;;;;;6.29;56.78;98306.52;108695;1264;58813;-26
2023/12/20 00:17:16;;;;;;;8.80;3.10;;;;;;;6.27;57.07;98303.19;108744;1264;60107;-26
2023/12/20 00:19:43;;;;;;;9.70;3.50;;;;;;;6.24;57.15;98307.33;108767;1264;73060;-25
2023/12/20 00:22:11;;;;;;;9.30;3.60;;;;;;;6.17;57.71;98304.14;108738;1264;73198;-25
2023/12/20 00:24:38;;;;;;;7.20;3.20;;;;;;;6.11;57.62;98299.41;108711;1263;72689;-25
2023/12/20 00:27:06;;;;;;;8.90;3.90;;;;;;;6.07;57.79;98304.02;108693;1266;58839;-26
2023/12/20 00:29:33;;;;;;;5.10;2.70;;;;;;;6.02;57.69;98292.30;108700;1263;59999;-25
2023/12/20 00:32:01;;;;;;;9.00;3.10;;;;;;;6.00;57.84;98292.95;108758;1264;73010;-25
2023/12/20 00:34:28;;;;;;;6.00;2.90;;;;;;;5.96;58.07;98287.17;108744;1264;74342;-25
2023/12/20 00:36:56;;;;;;;6.50;3.00;;;;;;;5.91;58.06;98279.95;108689;1267;71447;-26
2023/12/20 00:39:24;;;;;;;5.90;3.30;;;;;;;5.92;58.10;98278.04;108667;1267;58784;-25
2023/12/20 00:41:51;;;;;;;4.90;2.60;;;;;;;5.88;58.06;98276.10;108710;1265;58766;-25
2023/12/20 00:44:19;;;;;;;7.40;3.20;;;;;;;5.87;58.07;98270.79;108675;1267;73056;-25
2023/12/20 00:46:46;;;;;;;8.30;2.50;;;;;;;5.93;57.74;98272.75;108621;1266;74465;-25
2023/12/20 00:49:14;;;;;;;6.20;2.80;;;;;;;5.95;57.69;98269.88;108577;1270;72500;-25
2023/12/20 00:51:41;;;;;;;11.70;2.50;;;;;;;5.98;57.65;98266.05;108608;1266;59243;-25
2023/12/20 00:54:09;;;;;;;7.70;2.30;;;;;;;6.02;57.43;98264.92;108627;1267;59988;-25
2023/12/20 00:56:36;;;;;;;3.30;2.00;;;;;;;6.04;57.23;98268.02;108704;1265;71928;-25
2023/12/20 00:59:04;;;;;;;6.10;2.30;;;;;;;6.00;56.95;98262.27;108616;1267;74292;-25
2023/12/20 01:01:33;;;;;;;4.60;2.60;;;;;;;6.05;56.85;98270.52;109398;1254;71728;-26
2023/12/20 01:04:00;;;;;;;4.50;2.70;;;;;;;6.07;56.89;98263.51;109541;1253;58764;-25
2023/12/20 01:06:28;;;;;;;2.90;1.20;;;;;;;6.09;56.52;98251.82;109299;1254;60041;-25
2023/12/20 01:08:55;;;;;;;4.40;2.50;;;;;;;6.11;56.44;98247.34;109423;1254;73089;-25
2023/12/20 01:11:22;;;;;;;7.20;2.40;;;;;;;6.15;56.23;98244.85;109431;1254;73795;-25
2023/12/20 01:13:50;;;;;;;2.60;1.80;;;;;;;6.16;56.33;98247.37;109405;1254;70813;-25
2023/12/20 01:16:17;;;;;;;3.40;2.60;;;;;;;6.18;55.83;98232.70;109247;1253;58802;-25
2023/12/20 01:18:45;;;;;;;5.10;2.80;;;;;;;6.26;55.71;98234.66;109422;1254;58869;-25
2023/12/20 01:21:12;;;;;;;4.50;2.40;;;;;;;6.31;55.57;98230.46;109305;1254;73132;-26
2023/12/20 01:23:40;;;;;;;3.80;2.20;;;;;;;6.33;55.67;98234.48;109419;1254;74311;-25
2023/12/20 01:26:08;;;;;;;4.70;2.70;;;;;;;6.39;55.25;98238.69;109398;1254;70688;-26
2023/12/20 01:28:35;;;;;;;7.10;2.80;;;;;;;6.43;55.36;98240.59;109225;1253;59248;-26
2023/12/20 01:31:03;;;;;;;4.50;2.70;;;;;;;6.40;55.37;98230.81;109449;1254;58731;-25
2023/12/20 01:33:31;;;;;;;5.10;2.50;;;;;;;6.44;55.18;98225.15;109269;1259;72866;-25
2023/12/20 01:35:58;;;;;;;4.60;2.80;;;;;;;6.46;55.26;98221.41;109442;1254;74340;-26
2023/12/20 01:38:26;;;;;;;4.30;2.40;;;;;;;6.46;54.85;98212.25;109338;1260;73136;-25
2023/12/20 01:40:53;;;;;;;6.30;2.20;;;;;;;6.49;54.96;98208.75;109207;1254;58931;-25
2023/12/20 01:43:21;;;;;;;5.20;2.50;;;;;;;6.50;54.76;98203.87;109201;1254;59872;-25
2023/12/20 01:45:51;;;;;;;3.80;2.30;;;;;;;6.52;54.77;98210.91;109384;1254;72998;-25
2023/12/20 01:48:19;;;;;;;3.80;2.40;;;;;;;6.53;55.06;98206.70;109324;1254;73575;-26
2023/12/20 01:50:46;;;;;;;4.80;2.00;;;;;;;6.56;54.79;98204.11;109194;1254;72728;-25
2023/12/20 01:53:14;;;;;;;4.40;2.60;;;;;;;6.53;54.81;98203.10;109172;1256;59264;-26
2023/12/20 01:55:41;;;;;;;3.00;1.80;;;;;;;6.52;54.67;98202.33;109186;1254;60018;-25
2023/12/20 01:58:10;;;;;;;4.00;1.80;;;;;;;6.50;54.32;98194.70;109208;1254;73031;-25
2023/12/20 02:00:37;;;;;;;3.80;2.00;;;;;;;6.54;54.50;98195.95;109384;1254;72254;-25
2023/12/20 02:03:05;;;;;;;3.40;2.00;;;;;;;6.49;54.34;98188.25;109278;1254;72632;-26
2023/12/20 02:05:34;;;;;;;4.00;2.10;;;;;;;6.42;54.14;98185.14;109329;1256;58845;-25
2023/12/20 02:08:02;;;;;;;4.60;2.60;;;;;;;6.43;54.19;98186.33;109159;1254;58756;-25
2023/12/20 02:10:30;;;;;;;2.10;1.40;;;;;;;6.44;53.95;98181.05;109366;1254;71846;-25
2023/12/20 02:12:57;;;;;;;2.90;2.10;;;;;;;6.41;53.87;98176.64;109389;1254;74338;-25
2023/12/20 02:15:25;;;;;;;3.20;1.50;;;;;;;6.37;54.03;98179.83;109443;1254;72516;-26
2023/12/20 02:17:53;;;;;;;2.50;1.70;;;;;;;6.30;54.30;98176.09;109321;1254;59100;-25
2023/12/20 02:20:20;;;;;;;5.20;2.50;;;;;;;6.28;54.46;98175.88;109222;1254;59975;-25
2023/12/20 02:22:48;;;;;;;3.80;2.50;;;;;;;6.26;54.40;98171.56;109353;1254;70832;-25
2023/12/20 02:25:15;;;;;;;4.10;2.30;;;;;;;6.28;54.65;98175.87;109234;1254;74335;-25
2023/12/20 02:27:43;;;;;;;3.90;2.20;;;;;;;6.33;54.36;98171.93;109419;1254;72679;-26
2023/12/20 02:30:11;;;;;;;2.90;1.90;;;;;;;6.36;54.33;98163.72;109151;1254;59203;-25
2023/12/20 02:32:38;;;;;;;3.10;1.70;;;;;;;6.41;54.38;98165.59;109398;1253;60008;-25
2023/12/20 02:35:06;;;;;;;3.30;2.00;;;;;;;6.41;54.24;98165.42;109350;1254;73076;-25
2023/12/20 02:37:34;;;;;;;3.10;2.20;;;;;;;6.38;54.09;98155.45;109567;1253;74321;-25
2023/12/20 02:40:04;;;;;;;5.70;2.70;;;;;;;6.38;54.13;98153.06;109276;1254;71414;-25
2023/12/20 02:42:31;;;;;;;3.30;2.30;;;;;;;6.44;54.34;98153.29;109388;1254;58850;-25
2023/12/20 02:44:59;;;;;;;2.30;1.70;;;;;;;6.40;54.59;98146.73;109161;1254;60003;-25
2023/12/20 02:47:26;;;;;;;2.90;1.60;;;;;;;6.40;54.24;98146.71;109292;1254;73061;-25
2023/12/20 02:49:54;;;;;;;4.30;3.30;;;;;;;6.32;54.56;98144.77;109160;1254;73125;-26
2023/12/20 02:52:23;;;;;;;3.70;1.90;;;;;;;6.22;54.45;98141.21;109300;1254;72622;-25
2023/12/20 02:54:51;;;;;;;4.90;2.30;;;;;;;6.21;54.95;98145.09;109104;1254;59299;-25
2023/12/20 02:57:18;;;;;;;3.50;2.20;;;;;;;6.15;54.97;98141.73;109288;1254;60012;-26
2023/12/20 02:59:46;;;;;;;3.30;2.10;;;;;;;6.16;55.21;98140.52;109297;1254;71795;-26
2023/12/20 03:02:13;;;;;;;3.80;2.30;;;;;;;6.09;55.17;98139.05;109295;1255;74364;-25
2023/12/20 03:04:40;;;;;;;4.50;2.20;;;;;;;6.09;55.30;98143.57;109297;1254;72643;-25
2023/12/20 03:07:08;;;;;;;4.30;2.30;;;;;;;6.06;55.31;98142.56;109283;1256;59262;-25
2023/12/20 03:09:36;;;;;;;3.40;1.90;;;;;;;5.99;55.39;98138.77;109179;1254;60062;-26
2023/12/20 03:12:23;;;;;;;3.30;2.40;;;;;;;5.96;55.71;98143.69;109309;1254;73060;-25
2023/12/20 03:14:51;;;;;;;2.70;1.80;;;;;;;5.99;55.40;98142.63;109293;1254;73033;-25
2023/12/20 03:17:19;;;;;;;4.20;2.20;;;;;;;6.01;55.64;98144.57;109303;1254;70491;-25
2023/12/20 03:19:47;;;;;;;3.60;2.30;;;;;;;6.01;55.35;98146.90;109288;1254;58747;-25
2023/12/20 03:22:14;;;;;;;3.60;1.80;;;;;;;6.05;55.26;98143.39;109308;1254;60002;-26
2023/12/20 03:24:42;;;;;;;4.30;2.10;;;;;;;6.03;55.33;98142.28;109299;1254;73024;-25
2023/12/20 03:27:09;;;;;;;3.00;1.80;;;;;;;6.05;55.56;98140.11;109304;1254;73735;-25
2023/12/20 03:29:36;;;;;;;3.80;2.00;;;;;;;6.06;55.30;98145.52;109283;1254;72798;-25
2023/12/20 03:32:04;;;;;;;3.30;2.00;;;;;;;6.06;55.12;98140.71;109278;1256;59341;-25
2023/12/20 03:34:31;;;;;;;3.30;1.90;;;;;;;6.08;55.33;98139.00;109395;1254;58724;-26
2023/12/20 03:36:59;;;;;;;3.40;2.20;;;;;;;6.09;55.15;98136.00;109263;1254;73828;-26
2023/12/20 03:39:26;;;;;;;5.80;2.10;;;;;;;6.05;55.42;98133.56;109265;1256;74297;-25
2023/12/20 03:41:54;;;;;;;4.20;2.00;;;;;;;6.07;55.55;98136.36;109216;1256;72666;-25
2023/12/20 03:44:21;;;;;;;2.40;2.10;;;;;;;6.07;55.48;98133.56;109231;1255;58822;-25
2023/12/20 03:46:49;;;;;;;5.00;2.10;;;;;;;6.06;55.62;98130.85;109301;1255;59999;-25
2023/12/20 03:49:17;;;;;;;2.10;1.50;;;;;;;6.03;55.54;98130.55;109257;1256;73962;-26
2023/12/20 03:51:44;;;;;;;3.30;2.30;;;;;;;6.02;55.78;98127.02;109259;1257;74299;-25
2023/12/20 03:54:12;;;;;;;3.50;2.50;;;;;;;6.05;55.27;98129.09;109277;1255;71426;-25
2023/12/20 03:56:39;;;;;;;4.50;2.40;;;;;;;6.05;55.41;98125.78;109219;1256;58786;-26
2023/12/20 03:59:07;;;;;;;3.20;2.00;;;;;;;6.01;55.51;98136.23;109181;1256;60032;-25
2023/12/20 04:01:34;;;;;;;3.50;1.80;;;;;;;5.98;55.14;98134.54;109242;1256;73820;-26
2023/12/20 04:04:02;;;;;;;3.60;1.70;;;;;;;5.95;55.41;98143.61;109271;1256;74287;-26
2023/12/20 04:06:30;;;;;;;3.20;2.10;;;;;;;5.89;55.71;98145.91;109260;1256;72773;-25
2023/12/20 04:08:58;;;;;;;4.30;2.20;;;;;;;5.83;55.59;98140.67;109234;1256;59202;-26
2023/12/20 04:11:25;;;;;;;2.80;2.00;;;;;;;5.78;55.73;98145.85;109332;1256;60002;-25
2023/12/20 04:13:53;;;;;;;2.90;2.00;;;;;;;5.72;56.03;98145.30;109246;1256;73909;-25
2023/12/20 04:16:20;;;;;;;4.90;2.40;;;;;;;5.64;56.41;98142.45;109260;1257;74277;-25
2023/12/20 04:18:48;;;;;;;4.10;2.30;;;;;;;5.54;56.35;98141.68;109248;1255;71403;-25
2023/12/20 04:21:15;;;;;;;3.90;2.10;;;;;;;5.47;56.44;98141.47;109215;1256;58691;-25
2023/12/20 04:23:43;;;;;;;4.70;2.10;;;;;;;5.38;56.96;98141.98;109247;1255;59972;-25
2023/12/20 04:26:10;;;;;;;4.80;2.10;;;;;;;5.29;56.95;98137.83;109113;1257;73850;-25
2023/12/20 04:28:38;;;;;;;2.90;1.90;;;;;;;5.27;57.10;98141.23;109262;1256;74293;-26
2023/12/20 04:31:05;;;;;;;3.50;2.00;;;;;;;5.22;56.90;98137.48;109137;1255;72316;-25
2023/12/20 04:33:33;;;;;;;5.30;2.10;;;;;;;5.13;57.06;98134.48;109250;1255;59246;-25
2023/12/20 04:36:00;;;;;;;4.10;1.80;;;;;;;5.08;57.32;98131.77;109261;1256;58739;-25
2023/12/20 04:38:28;;;;;;;5.80;2.40;;;;;;;5.00;57.42;98128.79;109251;1255;72616;-25
2023/12/20 04:40:55;;;;;;;2.80;2.10;;;;;;;4.94;57.51;98129.89;109141;1256;74337;-25
2023/12/20 04:43:23;;;;;;;6.50;2.30;;;;;;;4.88;57.72;98132.85;109098;1256;72657;-26
2023/12/20 04:45:51;;;;;;;3.60;2.10;;;;;;;4.83;57.85;98131.70;109114;1256;58963;-25
2023/12/20 04:48:18;;;;;;;3.60;2.20;;;;;;;4.74;57.96;98128.89;109157;1255;60075;-26
2023/12/20 04:50:46;;;;;;;3.20;2.30;;;;;;;4.67;58.19;98127.35;109153;1257;72594;-25
2023/12/20 04:53:13;;;;;;;3.60;2.00;;;;;;;4.58;58.26;98122.81;109143;1256;73664;-25
2023/12/20 04:55:42;;;;;;;4.20;2.30;;;;;;;4.53;58.39;98120.95;109183;1256;73163;-25
2023/12/20 04:58:09;;;;;;;3.80;1.60;;;;;;;4.47;58.53;98123.95;109225;1256;58795;-25
2023/12/20 05:00:37;;;;;;;3.90;2.10;;;;;;;4.39;59.03;98119.20;109188;1256;59106;-25
2023/12/20 05:03:04;;;;;;;4.00;2.20;;;;;;;4.35;59.07;98115.55;109150;1255;73809;-25
2023/12/20 05:05:33;;;;;;;3.40;2.00;;;;;;;4.31;59.32;98108.20;109142;1256;73202;-25
2023/12/20 05:08:01;;;;;;;3.50;1.90;;;;;;;4.27;59.34;98110.25;108996;1255;72631;-25
2023/12/20 05:10:28;;;;;;;2.70;1.70;;;;;;;4.23;59.55;98104.48;109120;1256;59291;-26
2023/12/20 05:12:56;;;;;;;3.20;2.20;;;;;;;4.20;59.57;98105.02;109157;1256;58853;-25
2023/12/20 05:15:24;;;;;;;3.00;2.10;;;;;;;4.16;59.57;98104.80;109196;1256;73982;-25
2023/12/20 05:17:51;;;;;;;2.40;2.10;;;;;;;4.11;59.87;98101.70;109121;1257;74318;-25
2023/12/20 05:20:19;;;;;;;3.80;2.40;;;;;;;4.07;60.03;98097.05;109177;1255;71373;-25
2023/12/20 05:22:47;;;;;;;3.80;2.40;;;;;;;4.07;59.94;98098.42;109161;1256;59253;-28
2023/12/20 05:25:14;;;;;;;2.80;1.90;;;;;;;4.07;59.99;98099.96;109171;1256;58879;-25
2023/12/20 05:27:42;;;;;;;3.30;2.10;;;;;;;4.05;60.16;98101.84;109133;1256;72548;-25
2023/12/20 05:30:11;;;;;;;5.70;2.60;;;;;;;4.01;60.29;98102.05;109163;1257;73045;-25
2023/12/20 05:32:39;;;;;;;4.00;2.40;;;;;;;3.98;59.94;98095.39;109023;1256;72690;-25
2023/12/20 05:35:07;;;;;;;2.90;2.10;;;;;;;3.97;60.05;98093.44;109070;1256;59353;-25
2023/12/20 05:37:36;;;;;;;3.90;2.40;;;;;;;3.94;60.08;98093.60;109256;1256;59071;-25
2023/12/20 05:40:07;;;;;;;4.80;2.80;;;;;;;3.94;60.10;98092.23;109007;1257;73854;-25
2023/12/20 05:42:38;;;;;;;4.20;1.80;;;;;;;3.94;59.94;98093.96;109150;1257;72358;-25
2023/12/20 05:45:08;;;;;;;3.30;2.20;;;;;;;3.91;60.14;98091.78;108950;1257;72703;-25
2023/12/20 05:47:38;;;;;;;3.20;2.00;;;;;;;3.91;60.34;98088.81;108953;1257;58858;-25
2023/12/20 05:50:07;;;;;;;3.50;2.00;;;;;;;3.91;60.25;98081.28;109000;1257;60069;-25
2023/12/20 05:52:38;;;;;;;4.30;2.10;;;;;;;3.93;60.36;98080.11;109140;1257;73918;-25
2023/12/20 05:55:09;;;;;;;4.20;2.30;;;;;;;3.95;60.24;98075.02;108992;1257;74329;-25
2023/12/20 05:57:40;;;;;;;4.60;2.30;;;;;;;3.96;60.14;98072.52;108975;1257;72903;-25
2023/12/20 06:00:11;;;;;;;2.40;1.60;;;;;;;3.94;60.13;98078.16;108988;1257;59552;-25
2023/12/20 06:02:41;;;;;;;3.90;2.40;;;;;;;3.92;60.20;98081.54;109026;1257;59627;-26
2023/12/20 06:05:11;;;;;;;3.70;2.20;;;;;;;3.95;60.14;98088.23;109045;1257;72645;-25
2023/12/20 06:07:41;;;;;;;4.70;2.50;;;;;;;3.93;60.07;98098.30;109052;1257;74415;-25
2023/12/20 06:10:12;;;;;;;3.70;1.90;;;;;;;3.89;60.23;98101.04;109020;1257;72717;-25
2023/12/20 06:12:42;;;;;;;3.80;2.30;;;;;;;3.83;60.49;98103.30;109000;1260;58751;-25
2023/12/20 06:15:13;;;;;;;4.90;2.30;;;;;;;3.83;60.37;98102.05;109031;1257;60161;-25
2023/12/20 06:17:42;;;;;;;4.70;2.00;;;;;;;3.85;60.27;98102.98;109047;1257;73802;-25
2023/12/20 06:20:13;;;;;;;3.70;1.80;;;;;;;3.83;60.18;98099.87;109047;1257;73179;-25
2023/12/20 06:22:44;;;;;;;3.70;2.10;;;;;;;3.79;60.93;98099.77;108999;1257;71621;-25
2023/12/20 06:25:14;;;;;;;2.50;1.50;;;;;;;3.82;60.64;98096.63;109057;1257;59236;-25
2023/12/20 06:27:44;;;;;;;2.30;1.50;;;;;;;3.87;60.62;98103.38;108974;1257;58776;-25
2023/12/20 06:30:15;;;;;;;2.90;2.00;;;;;;;3.93;60.49;98107.56;108984;1257;73901;-25
2023/12/20 06:32:46;;;;;;;4.10;1.90;;;;;;;3.98;60.50;98105.38;108979;1257;73240;-25
2023/12/20 06:35:16;;;;;;;2.40;1.70;;;;;;;3.98;60.51;98108.96;109007;1257;71413;-25
2023/12/20 06:45:41;;;;;;;4.00;2.40;;;;;;;3.88;61.63;98099.02;102491;1295;615171;-27
2023/12/20 06:48:08;;;;;;;2.80;2.30;;;;;;;3.82;61.76;98098.23;105058;1270;61116;-27
2023/12/20 06:50:39;;;;;;;3.90;1.90;;;;;;;3.77;62.05;98091.85;105163;1269;61193;-27
2023/12/20 06:53:06;;;;;;;4.00;2.50;;;;;;;3.78;62.07;98087.70;105082;1269;72159;-27
2023/12/20 06:55:36;;;;;;;4.60;2.50;;;;;;;3.92;61.69;98087.38;104913;1267;74353;-27
2023/12/20 06:58:03;;;;;;;3.90;2.50;;;;;;;3.93;61.71;98088.39;104684;1270;216281;-27
2023/12/20 07:00:30;;;;;;;4.00;2.10;;;;;;;3.95;61.85;98086.84;105212;1266;61055;-27
2023/12/20 07:02:57;;;;;;;3.90;2.20;;;;;;;3.99;61.95;98084.86;105195;1269;61654;-27
2023/12/20 07:05:24;;;;;;;5.10;2.40;;;;;;;4.09;61.79;98082.80;105059;1266;71961;-27
2023/12/20 07:07:51;;;;;;;6.50;2.70;;;;;;;4.26;61.37;98081.40;105208;1269;74748;-27
2023/12/20 07:10:18;;;;;;;4.90;2.40;;;;;;;4.37;60.87;98082.70;105207;1270;72821;-27
2023/12/20 07:12:45;;;;;;;3.50;2.20;;;;;;;4.47;60.67;98081.84;104914;1264;62901;-27
2023/12/20 07:15:12;;;;;;;4.80;2.70;;;;;;;4.56;60.44;98082.20;105804;1256;61125;-27
2023/12/20 07:17:39;;;;;;;3.50;2.30;;;;;;;4.66;60.14;98079.97;105937;1256;73076;-27
2023/12/20 07:20:10;;;;;;;6.90;2.60;;;;;;;4.68;59.79;98076.92;105766;1256;74351;-27
2023/12/20 07:22:38;;;;;;;3.40;2.20;;;;;;;4.79;59.61;98071.98;105544;1251;72618;-27
2023/12/20 07:25:07;;;;;;;4.40;2.50;;;;;;;4.91;59.20;98068.14;105951;1251;61196;-27
2023/12/20 07:27:34;;;;;;;3.40;2.10;;;;;;;5.01;58.76;98075.72;105758;1251;61039;-27
2023/12/20 07:30:01;;;;;;;4.40;2.20;;;;;;;5.16;58.17;98075.98;105988;1254;72965;-27
2023/12/20 07:32:29;;;;;;;2.90;2.10;;;;;;;5.23;57.96;98073.09;105976;1256;74340;-27
2023/12/20 07:34:56;;;;;;;2.30;1.60;;;;;;;5.31;57.57;98077.24;105940;1251;72705;-27
2023/12/20 07:37:23;;;;;;;3.60;1.80;;;;;;;5.42;57.34;98079.86;105891;1255;61049;-27
2023/12/20 07:39:50;;;;;;;5.30;2.10;;;;;;;5.56;57.06;98075.73;105687;1257;61131;-27
2023/12/20 07:42:17;;;;;;;2.40;1.40;;;;;;;5.76;56.31;98080.43;105889;1255;73098;-26
2023/12/20 07:44:45;;;;;;;3.00;1.60;;;;;;;5.88;55.85;98082.93;105846;1260;74504;-26
2023/12/20 07:47:15;;;;;;;2.80;1.40;;;;;;;6.06;55.60;98078.50;105676;1254;73168;-27
2023/12/20 07:49:42;;;;;;;2.10;1.40;;;;;;;6.20;54.90;98078.11;105664;1254;61122;-26
2023/12/20 07:52:09;;;;;;;1.60;1.30;;;;;;;6.39;54.57;98077.30;105853;1255;61112;-26
2023/12/20 07:54:36;;;;;;;3.40;1.90;;;;;;;6.57;54.36;98080.17;105792;1254;72924;-26
2023/12/20 07:57:04;;;;;;;2.80;1.90;;;;;;;6.73;53.81;98073.58;105763;1255;74231;-28
2023/12/20 07:59:30;;;;;;;2.60;1.80;;;;;;;6.82;53.59;98076.84;105554;1254;72628;-27
2023/12/20 08:01:59;;;;;;;2.90;1.60;;;;;;;6.91;52.95;98072.09;105609;1259;61052;-26
2023/12/20 08:04:27;;;;;;;2.50;1.90;;;;;;;7.00;52.78;98072.08;105818;1254;61062;-26
2023/12/20 08:06:55;;;;;;;5.60;1.60;;;;;;;7.05;52.32;98075.54;105848;1254;72990;-26
2023/12/20 08:09:22;;;;;;;3.40;1.90;;;;;;;7.13;52.23;98064.44;105882;1254;74139;-26
2023/12/20 08:11:49;;;;;;;3.90;2.10;;;;;;;7.05;52.23;98072.84;105894;1254;72653;-27
2023/12/20 08:14:16;;;;;;;2.30;1.80;;;;;;;7.05;52.19;98073.38;105856;1253;61058;-27
2023/12/20 08:16:43;;;;;;;3.50;2.00;;;;;;;7.11;52.07;98079.31;105825;1257;61099;-26
2023/12/20 08:19:10;;;;;;;3.10;2.00;;;;;;;7.14;52.53;98078.33;105729;1254;74877;-27
2023/12/20 08:21:37;;;;;;;2.60;1.50;;;;;;;7.18;52.37;98078.70;105618;1260;74824;-27
2023/12/20 08:24:06;;;;;;;3.30;1.80;;;;;;;7.27;52.01;98082.29;105762;1254;72439;-27
2023/12/20 08:26:33;;;;;;;3.70;2.50;;;;;;;7.37;51.38;98079.25;105837;1254;61105;-27
2023/12/20 08:29:00;;;;;;;3.20;1.90;;;;;;;7.42;51.40;98079.18;105863;1255;61058;-27
2023/12/20 08:31:29;;;;;;;3.40;2.20;;;;;;;7.56;51.30;98078.52;105694;1255;71767;-27
2023/12/20 08:33:56;;;;;;;3.80;2.00;;;;;;;7.78;50.22;98068.68;105752;1260;74655;-26
2023/12/20 08:36:24;;;;;;;2.20;1.50;;;;;;;8.05;49.52;98065.34;105861;1254;72639;-26
2023/12/20 08:38:51;;;;;;;3.50;2.00;;;;;;;8.39;49.19;98059.17;105666;1255;61039;-27
2023/12/20 08:41:18;;;;;;;2.30;1.60;;;;;;;8.68;47.85;98053.20;105838;1254;61814;-27
2023/12/20 08:43:45;;;;;;;2.80;1.90;;;;;;;8.91;48.01;98051.96;105622;1254;72169;-27
2023/12/20 08:46:14;;;;;;;3.60;1.90;;;;;;;9.05;47.34;98053.13;105755;1254;74289;-27
2023/12/20 08:48:41;;;;;;;3.60;1.90;;;;;;;9.24;47.04;98048.69;105587;1253;72630;-26
2023/12/20 08:51:09;;;;;;;3.30;1.90;;;;;;;9.36;46.18;98048.77;105620;1254;61249;-28
2023/12/20 08:53:36;;;;;;;4.00;2.00;;;;;;;9.20;45.74;98036.36;105663;1259;61125;-27
2023/12/20 08:56:04;;;;;;;3.70;2.30;;;;;;;9.41;45.88;98048.52;105704;1254;72037;-27
2023/12/20 08:58:31;;;;;;;2.80;2.00;;;;;;;9.66;45.79;98051.42;105694;1254;74172;-27
2023/12/20 09:00:58;;;;;;;2.70;1.70;;;;;;;9.80;44.84;98031.73;105569;1259;72661;-27
2023/12/20 09:03:25;;;;;;;3.50;2.10;;;;;;;9.72;45.22;98031.22;105738;1254;61073;-27
2023/12/20 09:05:52;;;;;;;2.10;1.60;;;;;;;9.94;44.93;98029.33;105535;1257;61169;-27
2023/12/20 09:08:19;;;;;;;4.60;1.90;;;;;;;9.92;44.09;98014.29;105597;1254;73818;-27
2023/12/20 09:10:46;;;;;;;3.80;2.30;;;;;;;9.89;44.09;98018.57;105683;1254;74855;-27
2023/12/20 09:13:13;;;;;;;4.80;1.70;;;;;;;9.88;44.47;98010.88;105705;1257;74022;-27
2023/12/20 09:15:41;;;;;;;3.60;1.50;;;;;;;9.90;44.02;98011.73;105862;1254;61079;-26
2023/12/20 09:18:08;;;;;;;3.00;1.70;;;;;;;9.94;44.10;97998.12;105876;1257;61186;-27
2023/12/20 09:20:35;;;;;;;2.90;1.90;;;;;;;9.88;44.33;98000.48;105898;1254;73421;-27
2023/12/20 09:23:02;;;;;;;3.70;2.10;;;;;;;9.82;44.02;97982.87;105568;1254;74284;-27
2023/12/20 09:25:29;;;;;;;5.30;2.30;;;;;;;9.77;43.99;97984.52;105660;1257;72858;-27
2023/12/20 09:27:57;;;;;;;4.00;1.90;;;;;;;9.78;44.15;97980.21;105795;1254;61145;-27
2023/12/20 09:30:25;;;;;;;3.70;2.00;;;;;;;9.67;43.89;97974.99;105666;1259;61301;-27
2023/12/20 09:32:55;;;;;;;3.50;2.30;;;;;;;9.64;44.54;97975.47;105670;1254;72822;-27
2023/12/20 09:35:22;;;;;;;3.40;2.20;;;;;;;9.52;45.34;97974.04;105793;1254;75875;-27
2023/12/20 09:37:50;;;;;;;7.50;2.00;;;;;;;9.50;44.93;97975.58;105905;1253;71720;-27
2023/12/20 09:40:20;;;;;;;4.40;2.00;;;;;;;9.56;45.29;97973.80;105705;1254;61152;-27
2023/12/20 09:43:03;;;;;;;4.70;2.30;;;;;;;9.68;45.20;97980.71;105648;1255;61174;-27
2023/12/20 09:45:31;;;;;;;3.40;2.30;;;;;;;9.90;45.73;97977.91;105613;1254;72986;-27
2023/12/20 09:47:58;;;;;;;4.20;2.60;;;;;;;10.09;45.81;97979.30;105624;1254;74296;-25
2023/12/20 09:50:25;;;;;;;4.50;2.30;;;;;;;9.85;45.23;97969.39;105825;1254;74376;-25
2023/12/20 09:52:53;;;;;;;3.10;2.50;;;;;;;9.77;46.01;97967.32;105647;1255;61124;-27
2023/12/20 09:55:20;;;;;;;3.60;2.20;;;;;;;9.79;45.56;97962.66;105706;1253;61055;-27
2023/12/20 09:57:48;;;;;;;4.50;2.70;;;;;;;9.97;45.39;97966.13;105619;1254;72027;-28
2023/12/20 10:00:19;;;;;;;3.80;2.20;;;;;;;10.19;44.92;97969.59;105610;1254;75692;-25
2023/12/20 10:02:53;;;;;;;5.00;2.20;;;;;;;10.45;44.34;97968.51;105677;1253;72384;-25
2023/12/20 10:05:20;;;;;;;3.00;2.40;;;;;;;10.65;43.40;97960.29;105535;1254;61564;-26
2023/12/20 10:07:47;;;;;;;4.80;2.70;;;;;;;10.70;43.21;97958.08;105723;1254;61167;-26
2023/12/20 10:10:15;;;;;;;3.70;2.60;;;;;;;10.74;42.68;97950.88;105741;1260;72738;-26
2023/12/20 10:13:01;;;;;;;4.00;2.30;;;;;;;10.93;43.04;97951.98;105685;1259;73738;-26
2023/12/20 10:15:28;;;;;;;4.00;2.40;;;;;;;10.96;42.85;97948.55;105701;1254;71357;-26
2023/12/20 10:17:55;;;;;;;4.10;2.80;;;;;;;11.06;42.37;97947.73;105797;1252;61148;-26
2023/12/20 10:20:31;;;;;;;4.40;2.40;;;;;;;11.17;41.95;97938.98;105677;1253;61173;-26
2023/12/20 10:22:58;;;;;;;3.50;2.20;;;;;;;11.24;41.45;97944.37;105595;1254;73081;-26
2023/12/20 10:25:25;;;;;;;3.00;2.60;;;;;;;11.14;40.77;97938.92;105490;1254;74747;-26
2023/12/20 10:28:13;;;;;;;4.00;2.70;;;;;;;11.16;40.39;97941.58;105550;1254;71916;-26
2023/12/20 10:30:40;;;;;;;3.60;2.80;;;;;;;11.39;40.64;97941.52;105584;1254;61074;-26
2023/12/20 10:33:07;;;;;;;2.90;2.50;;;;;;;11.33;39.85;97933.27;105875;1254;61157;-29
2023/12/20 10:35:35;;;;;;;4.00;2.60;;;;;;;11.17;39.73;97933.07;105753;1254;73095;-26
2023/12/20 10:38:06;;;;;;;3.70;2.80;;;;;;;10.81;40.28;97926.62;105565;1259;75129;-26
2023/12/20 10:40:36;;;;;;;4.80;2.90;;;;;;;10.79;40.79;97927.84;105502;1260;72851;-26
2023/12/20 10:43:04;;;;;;;4.30;2.90;;;;;;;10.42;41.15;97926.10;105646;1260;61133;-26
2023/12/20 10:45:31;;;;;;;4.70;2.50;;;;;;;10.25;41.44;97924.13;105550;1259;62955;-26
2023/12/20 10:48:01;;;;;;;4.30;2.40;;;;;;;10.21;41.11;97916.52;105542;1253;72296;-26
2023/12/20 10:50:29;;;;;;;4.00;2.80;;;;;;;10.17;41.25;97920.04;105571;1255;73974;-26
2023/12/20 10:52:57;;;;;;;3.70;2.30;;;;;;;10.11;41.53;97915.38;105725;1260;73163;-26
2023/12/20 10:55:24;;;;;;;3.30;2.30;;;;;;;10.08;41.85;97916.73;105724;1253;61694;-26
2023/12/20 10:57:52;;;;;;;3.70;2.20;;;;;;;10.15;42.42;97924.25;105835;1259;61100;-26
2023/12/20 11:00:19;;;;;;;6.50;2.50;;;;;;;10.16;42.25;97925.62;105636;1254;75194;-26
2023/12/20 11:02:47;;;;;;;3.80;2.30;;;;;;;10.02;42.46;97917.64;105434;1260;73291;-26
2023/12/20 11:05:17;;;;;;;3.20;2.00;;;;;;;9.96;42.79;97918.03;105458;1254;71474;-26
2023/12/20 11:07:48;;;;;;;4.00;2.10;;;;;;;9.90;42.72;97920.88;105591;1254;62081;-25
2023/12/20 11:10:29;;;;;;;3.90;1.90;;;;;;;9.77;43.06;97918.61;105483;1254;61068;-26
2023/12/20 11:15:09;;;;;;;5.70;1.90;;;;;;;9.50;44.30;97903.88;102966;1287;600269;-25
2023/12/20 11:17:39;;;;;;;4.00;2.40;;;;;;;9.49;44.60;97900.86;104819;1270;62320;-26
2023/12/20 11:20:10;;;;;;;4.00;2.60;;;;;;;9.45;44.67;97897.77;104844;1266;61122;-26
2023/12/20 11:22:41;;;;;;;3.30;1.90;;;;;;;9.44;44.79;97895.77;104770;1266;70576;-26
2023/12/20 11:25:10;;;;;;;5.40;2.60;;;;;;;9.47;44.70;97894.11;104589;1266;76423;-26
2023/12/20 11:27:43;;;;;;;3.50;2.10;;;;;;;9.45;44.97;97895.73;104260;1266;202715;-27
2023/12/20 11:30:13;;;;;;;4.60;2.10;;;;;;;9.48;45.06;97895.80;104795;1263;61187;-25
2023/12/20 11:32:42;;;;;;;3.20;1.70;;;;;;;9.46;44.84;97892.80;104794;1269;62051;-26
2023/12/20 11:35:13;;;;;;;3.10;2.20;;;;;;;9.23;45.32;97889.66;104790;1268;72195;-26
2023/12/20 11:37:44;;;;;;;2.60;2.10;;;;;;;9.22;45.46;97890.86;104764;1265;74291;-25
2023/12/20 11:40:15;;;;;;;2.90;1.80;;;;;;;9.25;44.93;97886.31;104741;1266;74949;-26
2023/12/20 11:42:49;;;;;;;4.40;2.70;;;;;;;9.10;45.25;97883.35;104568;1266;61167;-25
2023/12/20 11:45:19;;;;;;;6.30;2.40;;;;;;;9.00;45.22;97883.75;104479;1265;61061;-26